createdAt,value
2019-06-26T00:00:18.797Z,1.60
2019-06-26T00:02:53.580Z,1.52
2019-06-26T00:05:26.853Z,1.27
2019-06-26T00:07:59.951Z,1.50
2019-06-26T00:10:33.118Z,1.60
2019-06-26T00:13:06.275Z,1.40
2019-06-26T00:15:39.382Z,1.30
2019-06-26T00:18:12.521Z,1.20
2019-06-26T00:20:45.570Z,1.32
2019-06-26T00:23:18.638Z,1.90
2019-06-26T00:25:51.769Z,1.60
2019-06-26T00:28:24.806Z,1.65
2019-06-26T00:30:58.040Z,1.90
2019-06-26T00:33:31.193Z,1.72
2019-06-26T00:36:04.190Z,1.10
2019-06-26T00:38:40.036Z,1.37
2019-06-26T00:41:11.999Z,1.55
2019-06-26T00:43:45.194Z,1.50
2019-06-26T00:46:18.252Z,1.50
2019-06-26T00:48:51.521Z,1.45
2019-06-26T00:51:24.648Z,1.80
2019-06-26T00:53:57.891Z,1.67
2019-06-26T00:56:30.976Z,1.50
2019-06-26T00:59:04.191Z,1.92
2019-06-26T01:01:37.285Z,1.52
2019-06-26T01:04:15.685Z,1.35
2019-06-26T01:06:48.845Z,1.32
2019-06-26T01:09:21.993Z,1.42
2019-06-26T01:11:55.135Z,1.30
2019-06-26T01:14:28.309Z,1.20
2019-06-26T01:17:01.446Z,1.60
2019-06-26T01:19:34.552Z,1.55
2019-06-26T01:22:07.518Z,1.87
2019-06-26T01:24:40.586Z,1.85
2019-06-26T01:27:13.614Z,1.85
2019-06-26T01:29:47.652Z,1.85
2019-06-26T01:32:20.687Z,1.60
2019-06-26T01:34:53.815Z,1.98
2019-06-26T01:37:27.054Z,2.20
2019-06-26T01:40:00.202Z,2.58
2019-06-26T01:42:33.182Z,2.30
2019-06-26T01:45:08.577Z,2.75
2019-06-26T01:47:41.536Z,2.60
2019-06-26T01:50:14.626Z,3.37
2019-06-26T01:52:52.954Z,2.98
2019-06-26T01:55:26.059Z,2.65
2019-06-26T01:58:00.164Z,2.92
2019-06-26T02:00:33.246Z,2.52
2019-06-26T02:03:06.379Z,2.25
2019-06-26T02:05:39.559Z,2.40
2019-06-26T02:08:12.723Z,2.17
2019-06-26T02:10:45.946Z,2.22
2019-06-26T02:13:19.100Z,2.30
2019-06-26T02:15:52.338Z,2.33
2019-06-26T02:18:33.201Z,2.12
2019-06-26T02:21:06.217Z,2.55
2019-06-26T02:23:39.263Z,2.50
2019-06-26T02:26:12.425Z,2.22
2019-06-26T02:28:45.324Z,2.52
2019-06-26T02:31:18.390Z,2.90
2019-06-26T02:33:51.392Z,2.47
2019-06-26T02:36:24.487Z,3.30
2019-06-26T02:38:57.628Z,3.10
2019-06-26T02:41:30.693Z,3.42
2019-06-26T02:44:03.938Z,3.25
2019-06-26T02:46:36.940Z,3.22
2019-06-26T02:49:10.123Z,2.65
2019-06-26T02:51:44.145Z,3.20
2019-06-26T02:54:17.249Z,2.98
2019-06-26T02:56:50.365Z,3.15
2019-06-26T02:59:23.431Z,2.85
2019-06-26T03:01:57.887Z,3.17
2019-06-26T03:04:30.928Z,3.42
2019-06-26T03:07:05.360Z,3.08
2019-06-26T03:09:38.317Z,3.70
2019-06-26T03:12:11.536Z,4.83
2019-06-26T03:14:44.537Z,5.17
2019-06-26T03:17:17.561Z,4.70
2019-06-26T03:19:50.633Z,4.75
2019-06-26T03:22:23.757Z,4.95
2019-06-26T03:24:56.741Z,4.67
2019-06-26T03:27:29.818Z,4.85
2019-06-26T03:30:02.941Z,4.80
2019-06-26T03:32:36.011Z,4.50
2019-06-26T03:35:09.010Z,5.97
2019-06-26T03:37:42.824Z,6.30
2019-06-26T03:40:16.905Z,4.78
2019-06-26T03:42:50.088Z,4.33
2019-06-26T03:45:26.271Z,5.05
2019-06-26T03:47:57.917Z,3.77
2019-06-26T03:50:31.160Z,3.33
2019-06-26T03:53:04.219Z,2.77
2019-06-26T03:55:37.366Z,2.85
2019-06-26T03:58:12.084Z,2.77
2019-06-26T04:00:46.488Z,2.65
2019-06-26T04:05:51.838Z,2.83
2019-06-26T04:08:25.000Z,2.92
2019-06-26T04:10:58.077Z,2.45
2019-06-26T04:13:31.145Z,4.28
2019-06-26T04:16:04.179Z,4.53
2019-06-26T04:18:37.257Z,3.47
2019-06-26T04:21:10.353Z,2.77
2019-06-26T04:23:43.350Z,3.50
2019-06-26T04:26:16.603Z,2.77
2019-06-26T04:28:49.881Z,2.53
2019-06-26T04:31:23.019Z,2.40
2019-06-26T04:33:57.667Z,2.45
2019-06-26T04:36:31.892Z,2.47
2019-06-26T04:39:06.740Z,2.40
2019-06-26T04:41:40.881Z,2.37
2019-06-26T04:44:13.945Z,2.47
2019-06-26T04:46:47.090Z,2.90
2019-06-26T04:49:20.207Z,2.27
2019-06-26T04:51:53.452Z,2.62
2019-06-26T04:54:26.616Z,2.10
2019-06-26T04:56:59.623Z,2.27
2019-06-26T04:59:32.745Z,2.02
2019-06-26T05:02:05.842Z,1.80
2019-06-26T05:04:38.976Z,1.70
2019-06-26T05:07:11.949Z,1.52
2019-06-26T05:09:44.989Z,1.85
2019-06-26T05:12:18.117Z,1.85
2019-06-26T05:14:51.117Z,2.50
2019-06-26T05:17:24.397Z,1.92
2019-06-26T05:19:57.433Z,1.75
2019-06-26T05:22:30.497Z,1.50
2019-06-26T05:25:03.849Z,1.65
2019-06-26T05:27:39.376Z,1.87
2019-06-26T05:30:12.550Z,1.52
2019-06-26T05:32:45.841Z,1.80
2019-06-26T05:35:18.965Z,2.12
2019-06-26T05:37:52.037Z,2.47
2019-06-26T05:40:25.117Z,2.20
2019-06-26T05:42:58.228Z,1.90
2019-06-26T05:45:38.370Z,2.27
2019-06-26T05:48:11.572Z,2.47
2019-06-26T05:50:46.373Z,2.58
2019-06-26T05:53:19.486Z,2.62
2019-06-26T05:55:52.558Z,2.27
2019-06-26T05:58:25.623Z,2.25
2019-06-26T06:00:58.745Z,2.50
2019-06-26T06:03:33.533Z,2.10
2019-06-26T06:06:08.622Z,2.10
2019-06-26T06:08:43.233Z,1.62
2019-06-26T06:11:16.453Z,1.77
2019-06-26T06:13:51.173Z,1.87
2019-06-26T06:16:26.885Z,1.45
2019-06-26T06:18:59.878Z,2.27
2019-06-26T06:21:34.663Z,1.80
2019-06-26T06:24:07.663Z,1.95
2019-06-26T06:26:40.726Z,2.90
2019-06-26T06:29:13.787Z,1.80
2019-06-26T06:31:47.802Z,2.12
2019-06-26T06:34:20.952Z,1.50
2019-06-26T06:36:54.632Z,2.25
2019-06-26T06:39:27.678Z,1.50
2019-06-26T06:42:00.728Z,1.27
2019-06-26T06:44:34.823Z,1.50
2019-06-26T06:47:09.063Z,1.30
2019-06-26T06:52:16.786Z,1.57
2019-06-26T06:54:51.351Z,1.20
2019-06-26T06:57:24.406Z,1.20
2019-06-26T06:59:59.179Z,1.42
2019-06-26T07:02:32.219Z,1.65
2019-06-26T07:05:07.411Z,1.15
2019-06-26T07:07:40.523Z,0.93
2019-06-26T07:10:13.528Z,2.33
2019-06-26T07:12:46.610Z,1.00
2019-06-26T07:15:21.734Z,0.80
2019-06-26T07:17:55.323Z,0.90
2019-06-26T07:20:28.563Z,1.05
2019-06-26T07:23:01.621Z,1.30
2019-06-26T07:25:34.742Z,1.20
2019-06-26T07:28:07.849Z,0.80
2019-06-26T07:30:41.035Z,1.20
2019-06-26T07:33:14.058Z,0.90
2019-06-26T07:35:47.034Z,1.70
2019-06-26T07:38:20.100Z,1.22
2019-06-26T07:40:53.131Z,1.32
2019-06-26T07:43:26.245Z,0.85
2019-06-26T07:46:00.331Z,1.00
2019-06-26T07:48:33.298Z,0.90
2019-06-26T07:51:06.313Z,1.90
2019-06-26T07:53:39.551Z,0.90
2019-06-26T07:56:12.686Z,1.60
2019-06-26T07:58:47.399Z,1.43
2019-06-26T08:01:20.648Z,1.35
2019-06-26T08:03:53.707Z,2.30
2019-06-26T08:06:26.899Z,1.50
2019-06-26T08:09:00.096Z,1.50
2019-06-26T08:11:33.095Z,1.20
2019-06-26T08:14:06.164Z,1.23
2019-06-26T08:16:40.227Z,1.50
2019-06-26T08:19:13.334Z,1.60
2019-06-26T08:24:19.940Z,1.15
2019-06-26T08:26:53.339Z,1.12
2019-06-26T08:29:26.503Z,1.27
2019-06-26T08:31:59.626Z,1.20
2019-06-26T08:34:32.778Z,1.17
2019-06-26T08:37:05.985Z,1.37
2019-06-26T08:39:39.047Z,1.02
2019-06-26T08:42:14.425Z,1.63
2019-06-26T08:44:47.465Z,1.27
2019-06-26T08:47:20.600Z,1.15
2019-06-26T08:49:53.736Z,1.12
2019-06-26T08:52:26.856Z,1.12
2019-06-26T08:54:59.931Z,1.17
2019-06-26T08:57:33.033Z,1.15
2019-06-26T09:00:08.091Z,1.02
2019-06-26T09:02:41.267Z,1.30
2019-06-26T09:05:14.747Z,1.62
2019-06-26T09:07:47.964Z,0.98
2019-06-26T09:10:21.087Z,1.20
2019-06-26T09:12:55.232Z,1.20
2019-06-26T09:15:29.452Z,1.10
2019-06-26T09:18:02.566Z,1.27
2019-06-26T09:20:40.636Z,1.30
2019-06-26T09:23:13.702Z,1.10
2019-06-26T09:25:46.900Z,0.90
2019-06-26T09:28:20.009Z,1.00
2019-06-26T09:30:53.324Z,1.52
2019-06-26T09:33:26.401Z,1.00
2019-06-26T09:36:01.182Z,1.17
2019-06-26T09:38:34.446Z,0.85
2019-06-26T09:41:07.586Z,0.95
2019-06-26T09:43:41.979Z,1.00
2019-06-26T09:46:15.273Z,1.25
2019-06-26T09:48:53.117Z,1.17
2019-06-26T09:51:24.720Z,1.32
2019-06-26T09:53:57.938Z,1.20
2019-06-26T09:56:30.967Z,0.98
2019-06-26T09:59:04.076Z,1.00
2019-06-26T10:01:37.144Z,1.10
2019-06-26T10:04:13.218Z,0.98
2019-06-26T10:06:46.373Z,0.95
2019-06-26T10:09:19.461Z,1.10
2019-06-26T10:11:52.582Z,1.10
2019-06-26T10:14:45.315Z,0.90
2019-06-26T10:17:00.447Z,1.32
2019-06-26T10:19:33.554Z,0.93
2019-06-26T10:22:06.628Z,1.10
2019-06-26T10:24:39.822Z,1.20
2019-06-26T10:27:12.920Z,1.20
2019-06-26T10:29:46.011Z,1.02
2019-06-26T10:32:19.223Z,1.20
2019-06-26T10:34:52.418Z,1.22
2019-06-26T10:37:25.620Z,0.93
2019-06-26T10:39:58.826Z,1.12
2019-06-26T10:42:32.022Z,1.00
2019-06-26T10:45:07.375Z,1.47
2019-06-26T10:47:42.745Z,0.93
2019-06-26T10:50:16.557Z,1.00
2019-06-26T10:52:49.793Z,1.10
2019-06-26T10:55:23.027Z,1.10
2019-06-26T10:57:56.911Z,1.22
2019-06-26T11:00:29.967Z,1.00
2019-06-26T11:03:03.908Z,1.10
2019-06-26T11:05:37.260Z,1.10
2019-06-26T11:08:10.426Z,1.17
2019-06-26T11:10:43.537Z,0.98
2019-06-26T11:13:16.764Z,0.70
2019-06-26T11:15:49.914Z,1.00
2019-06-26T11:18:24.032Z,1.00
2019-06-26T11:20:57.031Z,1.75
2019-06-26T11:23:30.255Z,1.00
2019-06-26T11:26:03.403Z,0.90
2019-06-26T11:28:36.588Z,1.27
2019-06-26T11:31:09.765Z,0.90
2019-06-26T11:33:42.814Z,0.82
2019-06-26T11:36:16.103Z,1.00
2019-06-26T11:38:49.252Z,0.90
2019-06-26T11:41:22.228Z,0.80
2019-06-26T11:43:55.222Z,0.95
2019-06-26T11:46:28.304Z,0.90
2019-06-26T11:49:01.411Z,0.90
2019-06-26T11:51:36.075Z,0.78
2019-06-26T11:54:09.436Z,1.20
2019-06-26T11:56:44.187Z,0.90
2019-06-26T11:59:18.538Z,0.85
2019-06-26T12:01:51.652Z,0.98
2019-06-26T12:04:27.311Z,1.20
2019-06-26T12:07:16.266Z,2.47
2019-06-26T12:09:50.622Z,1.20
2019-06-26T12:12:23.765Z,1.12
2019-06-26T12:15:14.560Z,1.10
2019-06-26T12:17:47.723Z,0.88
2019-06-26T12:20:36.458Z,1.12
2019-06-26T12:23:09.740Z,1.17
2019-06-26T12:25:42.819Z,1.12
2019-06-26T12:28:15.966Z,1.00
2019-06-26T12:31:05.247Z,1.15
2019-06-26T12:33:54.225Z,1.10
2019-06-26T12:36:28.916Z,1.30
2019-06-26T12:39:02.837Z,1.00
2019-06-26T12:41:37.529Z,0.98
2019-06-26T12:44:10.785Z,1.30
2019-06-26T12:46:43.931Z,1.10
2019-06-26T12:49:33.138Z,0.90
2019-06-26T12:52:22.026Z,1.37
2019-06-26T12:55:11.066Z,1.00
2019-06-26T12:58:12.666Z,0.90
2019-06-26T13:00:50.647Z,1.15
2019-06-26T13:03:41.345Z,1.20
2019-06-26T13:06:14.430Z,1.02
2019-06-26T13:08:47.570Z,1.42
2019-06-26T13:11:20.756Z,1.00
2019-06-26T13:14:02.608Z,1.00
2019-06-26T13:16:31.822Z,1.15
2019-06-26T13:19:04.865Z,1.20
2019-06-26T13:21:38.699Z,1.60
2019-06-26T13:24:13.061Z,1.30
2019-06-26T13:26:46.133Z,1.30
2019-06-26T13:29:20.717Z,1.47
2019-06-26T13:31:53.840Z,1.20
2019-06-26T13:34:27.367Z,1.42
2019-06-26T13:37:00.525Z,1.52
2019-06-26T13:39:33.769Z,1.30
2019-06-26T13:42:06.802Z,1.57
2019-06-26T13:44:39.813Z,1.30
2019-06-26T13:47:12.913Z,2.17
2019-06-26T13:49:45.978Z,1.62
2019-06-26T13:52:19.175Z,1.20
2019-06-26T13:54:52.445Z,1.35
2019-06-26T13:57:25.454Z,1.42
2019-06-26T13:59:58.575Z,1.37
2019-06-26T14:02:31.618Z,1.47
2019-06-26T14:05:07.697Z,1.17
2019-06-26T14:07:40.802Z,1.30
2019-06-26T14:10:13.888Z,1.20
2019-06-26T14:12:48.214Z,1.50
2019-06-26T14:15:21.438Z,1.22
2019-06-26T14:17:54.521Z,1.27
2019-06-26T14:20:27.527Z,1.50
2019-06-26T14:23:00.685Z,1.10
2019-06-26T14:25:33.753Z,1.50
2019-06-26T14:28:06.841Z,1.22
2019-06-26T14:30:42.453Z,1.10
2019-06-26T14:33:15.584Z,2.10
2019-06-26T14:35:49.858Z,1.20
2019-06-26T14:38:23.021Z,1.52
2019-06-26T14:40:59.091Z,1.30
2019-06-26T14:43:32.259Z,1.12
2019-06-26T14:46:05.480Z,1.22
2019-06-26T14:48:38.659Z,1.47
2019-06-26T14:51:12.812Z,1.20
2019-06-26T14:53:45.931Z,1.50
2019-06-26T14:56:19.029Z,1.05
2019-06-26T14:58:52.265Z,1.40
2019-06-26T15:01:26.852Z,1.10
2019-06-26T15:03:59.949Z,1.15
2019-06-26T15:06:33.151Z,1.47
2019-06-26T15:09:06.789Z,1.20
2019-06-26T15:11:40.238Z,1.30
2019-06-26T15:14:14.415Z,1.15
2019-06-26T15:16:48.568Z,1.17
2019-06-26T15:19:21.724Z,1.20
2019-06-26T15:21:58.654Z,1.22
2019-06-26T15:24:30.763Z,1.52
2019-06-26T15:27:03.908Z,1.17
2019-06-26T15:29:37.011Z,1.37
2019-06-26T15:32:11.031Z,1.35
2019-06-26T15:34:44.171Z,1.10
2019-06-26T15:37:17.205Z,1.45
2019-06-26T15:39:50.296Z,1.10
2019-06-26T15:42:23.429Z,1.10
2019-06-26T15:44:56.551Z,1.25
2019-06-26T15:47:29.540Z,1.10
2019-06-26T15:50:02.705Z,1.20
2019-06-26T15:52:35.781Z,1.37
2019-06-26T15:55:10.455Z,1.15
2019-06-26T15:57:43.649Z,1.42
2019-06-26T16:00:16.647Z,1.77
2019-06-26T16:02:50.733Z,1.95
2019-06-26T16:05:23.816Z,1.72
2019-06-26T16:07:56.979Z,1.50
2019-06-26T16:10:30.024Z,1.80
2019-06-26T16:13:03.264Z,1.17
2019-06-26T16:15:37.203Z,1.32
2019-06-26T16:18:21.718Z,3.25
2019-06-26T16:20:56.267Z,2.22
2019-06-26T16:23:30.966Z,2.00
2019-06-26T16:26:04.262Z,1.92
2019-06-26T16:28:37.194Z,1.77
2019-06-26T16:31:10.367Z,1.87
2019-06-26T16:33:43.499Z,1.60
2019-06-26T16:36:19.492Z,1.42
2019-06-26T16:38:52.625Z,1.47
2019-06-26T16:41:25.673Z,1.80
2019-06-26T16:43:58.851Z,1.52
2019-06-26T16:46:31.909Z,1.20
2019-06-26T16:49:04.890Z,2.03
2019-06-26T16:51:38.039Z,1.50
2019-06-26T16:54:11.251Z,1.33
2019-06-26T16:56:44.378Z,1.77
2019-06-26T16:59:17.560Z,1.57
2019-06-26T17:01:50.800Z,1.37
2019-06-26T17:04:25.513Z,1.42
2019-06-26T17:06:58.648Z,1.50
2019-06-26T17:09:31.862Z,1.90
2019-06-26T17:12:06.416Z,1.85
2019-06-26T17:14:40.401Z,1.60
2019-06-26T17:17:13.536Z,1.70
2019-06-26T17:19:46.617Z,2.03
2019-06-26T17:22:19.666Z,1.90
2019-06-26T17:24:52.728Z,1.47
2019-06-26T17:27:25.960Z,1.80
2019-06-26T17:29:59.054Z,1.90
2019-06-26T17:32:32.214Z,1.30
2019-06-26T17:35:08.328Z,1.87
2019-06-26T17:37:42.508Z,1.57
2019-06-26T17:40:16.395Z,1.53
2019-06-26T17:42:50.627Z,1.50
2019-06-26T17:45:23.777Z,1.80
2019-06-26T17:47:56.918Z,1.67
2019-06-26T17:50:30.078Z,1.90
2019-06-26T17:53:17.492Z,1.70
2019-06-26T17:55:38.987Z,2.08
2019-06-26T17:58:12.176Z,1.87
2019-06-26T18:00:45.472Z,2.03
2019-06-26T18:03:18.672Z,1.85
2019-06-26T18:05:51.903Z,1.60
2019-06-26T18:08:25.201Z,1.90
2019-06-26T18:10:58.444Z,1.80
2019-06-26T18:13:32.084Z,1.57
2019-06-26T18:16:05.361Z,1.80
2019-06-26T18:18:39.687Z,2.30
2019-06-26T18:21:14.502Z,2.00
2019-06-26T18:23:47.663Z,1.70
2019-06-26T18:26:20.855Z,1.85
2019-06-26T18:28:54.138Z,1.90
2019-06-26T18:31:30.479Z,1.90
2019-06-26T18:34:02.095Z,1.98
2019-06-26T18:39:09.876Z,1.65
2019-06-26T18:41:43.172Z,1.70
2019-06-26T18:44:16.491Z,1.70
2019-06-26T18:46:50.813Z,1.65
2019-06-26T18:49:24.068Z,2.67
2019-06-26T18:51:57.189Z,1.63
2019-06-26T18:54:30.389Z,2.10
2019-06-26T18:57:03.751Z,2.00
2019-06-26T18:59:36.976Z,2.20
2019-06-26T19:02:10.130Z,2.57
2019-06-26T19:04:43.286Z,2.35
2019-06-26T19:07:16.492Z,2.22
2019-06-26T19:09:49.837Z,23.90
2019-06-26T19:12:23.300Z,24.70
2019-06-26T19:14:57.029Z,20.75
2019-06-26T19:17:30.367Z,22.58
2019-06-26T19:20:04.839Z,21.55
2019-06-26T19:22:38.587Z,19.80
2019-06-26T19:25:11.801Z,19.17
2019-06-26T19:27:45.089Z,18.40
2019-06-26T19:30:18.235Z,15.33
2019-06-26T19:32:51.930Z,15.32
2019-06-26T19:35:25.041Z,15.15
2019-06-26T19:37:58.309Z,13.70
2019-06-26T19:40:31.523Z,11.63
2019-06-26T19:43:05.461Z,13.43
2019-06-26T19:45:38.626Z,10.90
2019-06-26T19:48:11.757Z,10.98
2019-06-26T19:50:45.045Z,9.48
2019-06-26T19:53:18.243Z,9.43
2019-06-26T19:55:51.457Z,9.25
2019-06-26T19:58:24.619Z,8.65
2019-06-26T20:00:57.839Z,9.13
2019-06-26T20:03:31.031Z,7.83
2019-06-26T20:06:04.176Z,7.65
2019-06-26T20:08:51.655Z,7.70
2019-06-26T20:11:13.779Z,7.17
2019-06-26T20:13:46.968Z,7.72
2019-06-26T20:16:20.158Z,6.95
2019-06-26T20:18:53.350Z,6.12
2019-06-26T20:21:26.427Z,5.75
2019-06-26T20:24:01.329Z,5.78
2019-06-26T20:26:34.404Z,5.28
2019-06-26T20:29:07.609Z,4.75
2019-06-26T20:31:40.813Z,5.30
2019-06-26T20:34:13.992Z,4.87
2019-06-26T20:36:48.093Z,4.62
2019-06-26T20:39:22.245Z,4.33
2019-06-26T20:41:55.351Z,4.33
2019-06-26T20:44:28.488Z,4.62
2019-06-26T20:47:01.725Z,4.25
2019-06-26T20:49:34.867Z,4.50
2019-06-26T20:52:08.004Z,4.15
2019-06-26T20:54:41.911Z,4.90
2019-06-26T20:57:15.067Z,4.40
2019-06-26T20:59:48.101Z,4.78
2019-06-26T21:02:21.196Z,4.53
2019-06-26T21:04:55.599Z,5.00
2019-06-26T21:07:28.668Z,4.70
2019-06-26T21:10:01.733Z,4.35
2019-06-26T21:12:34.940Z,4.95
2019-06-26T21:15:08.582Z,4.50
2019-06-26T21:17:41.854Z,8.15
2019-06-26T21:20:15.221Z,9.55
2019-06-26T21:22:48.301Z,8.83
2019-06-26T21:25:22.503Z,8.75
2019-06-26T21:27:55.747Z,9.60
2019-06-26T21:30:28.838Z,10.48
2019-06-26T21:33:01.992Z,11.03
2019-06-26T21:35:36.163Z,10.43
2019-06-26T21:38:09.298Z,10.35
2019-06-26T21:40:42.374Z,9.83
2019-06-26T21:43:15.513Z,11.63
2019-06-26T21:45:48.516Z,10.13
2019-06-26T21:48:21.596Z,8.95
2019-06-26T21:50:54.692Z,8.53
2019-06-26T21:53:27.834Z,9.65
2019-06-26T21:56:21.163Z,9.40
2019-06-26T21:59:11.892Z,7.60
2019-06-26T22:02:02.472Z,7.45
2019-06-26T22:04:52.502Z,8.08
2019-06-26T22:07:38.844Z,7.60
2019-06-26T22:10:19.607Z,7.55
2019-06-26T22:12:52.900Z,7.50
2019-06-26T22:15:25.965Z,7.67
2019-06-26T22:17:59.182Z,7.62
2019-06-26T22:20:32.404Z,8.80
2019-06-26T22:23:05.457Z,9.53
2019-06-26T22:25:50.448Z,10.53
2019-06-26T22:28:13.447Z,9.30
2019-06-26T22:30:46.586Z,9.25
2019-06-26T22:33:19.772Z,9.90
2019-06-26T22:35:52.951Z,9.75
2019-06-26T22:38:28.477Z,10.70
2019-06-26T22:41:03.243Z,9.75
2019-06-26T22:43:36.300Z,10.13
2019-06-26T22:46:09.437Z,10.60
2019-06-26T22:48:43.743Z,11.35
2019-06-26T22:53:49.150Z,11.63
2019-06-26T22:56:22.159Z,12.25
2019-06-26T22:58:55.256Z,14.90
2019-06-26T23:01:28.337Z,15.60
2019-06-26T23:04:01.473Z,15.80
2019-06-26T23:06:37.465Z,17.00
2019-06-26T23:09:09.373Z,16.45
2019-06-26T23:11:43.526Z,16.02
2019-06-26T23:14:16.654Z,15.68
2019-06-26T23:16:49.841Z,15.93
2019-06-26T23:19:22.839Z,16.50
2019-06-26T23:21:56.043Z,16.20
2019-06-26T23:24:29.141Z,16.50
2019-06-26T23:27:02.275Z,16.52
2019-06-26T23:29:36.276Z,16.60
2019-06-26T23:32:09.485Z,16.17
2019-06-26T23:34:42.634Z,16.57
2019-06-26T23:37:15.634Z,17.17
2019-06-26T23:39:48.679Z,18.65
2019-06-26T23:42:21.830Z,18.50
2019-06-26T23:44:54.853Z,18.62
2019-06-26T23:47:29.245Z,21.25
2019-06-26T23:52:37.052Z,26.00
2019-06-26T23:55:10.149Z,24.72
2019-06-26T23:57:57.936Z,26.80
